Time;durP1;ratioP1;P1;durP2;ratioP2;P2;SDS_P1;SDS_P2;PMS_P1;PMS_P2;Temp;Humidity;BMP_temperature;BMP_pressure;BME280_temperature;BME280_humidity;BME280_pressure;Samples;Min_cycle;Max_cycle;Signal;HPM_P1;HPM_P2
2022/12/08 00:02:07;;;;;;;7.43;4.73;;;6.60;99.90;;;;;;7392428;19;20134;-75
2022/12/08 00:09:20;;;;;;;9.20;4.87;;;6.60;99.90;;;;;;7392515;19;20139;-74
2022/12/08 00:10:03;;;;;;;8.33;4.70;;;6.60;99.90;;;;;;7393010;19;20652;-76
2022/12/08 00:12:30;;;;;;;8.93;4.40;;;6.50;99.90;;;;;;7391635;19;20158;-79
2022/12/08 00:14:57;;;;;;;6.97;4.23;;;6.50;99.90;;;;;;7393887;19;20149;-77
2022/12/08 00:17:23;;;;;;;6.67;4.50;;;6.50;99.90;;;;;;7391307;19;20615;-76
2022/12/08 00:19:49;;;;;;;6.97;4.80;;;6.50;99.90;;;;;;7393126;19;20175;-76
2022/12/08 00:22:15;;;;;;;7.80;5.10;;;6.70;99.90;;;;;;7391173;19;20213;-74
2022/12/08 00:24:43;;;;;;;6.57;4.50;;;6.60;99.90;;;;;;7389544;19;20146;-78
2022/12/08 00:27:11;;;;;;;7.60;4.50;;;6.60;99.90;;;;;;7390867;19;20155;-75
2022/12/08 00:29:37;;;;;;;6.03;4.53;;;6.50;99.90;;;;;;7392816;19;20137;-76
2022/12/08 00:32:04;;;;;;;7.53;4.40;;;6.50;99.90;;;;;;7393114;19;20138;-75
2022/12/08 00:34:30;;;;;;;6.03;4.63;;;6.40;99.90;;;;;;7391512;19;20492;-76
2022/12/08 00:36:56;;;;;;;6.97;4.30;;;6.50;99.90;;;;;;7392068;19;20143;-75
2022/12/08 00:39:22;;;;;;;6.17;4.57;;;6.60;99.90;;;;;;7390728;19;20595;-76
2022/12/08 00:44:32;;;;;;;7.30;4.60;;;6.50;99.90;;;;;;7391152;19;20610;-76
2022/12/08 00:46:57;;;;;;;6.83;4.37;;;6.30;99.90;;;;;;7391824;19;20155;-76
2022/12/08 00:49:24;;;;;;;5.87;4.33;;;6.10;99.90;;;;;;7391421;19;20150;-76
2022/12/08 00:51:49;;;;;;;5.70;4.20;;;6.20;99.90;;;;;;7389320;19;20131;-75
2022/12/08 00:54:16;;;;;;;7.70;4.40;;;6.20;99.90;;;;;;7389552;19;20164;-76
2022/12/08 00:56:41;;;;;;;7.30;4.60;;;6.00;99.90;;;;;;7390316;19;20138;-75
2022/12/08 00:59:07;;;;;;;6.27;4.30;;;5.90;99.90;;;;;;7402844;19;20522;-75
2022/12/08 01:01:34;;;;;;;8.73;4.40;;;5.80;99.90;;;;;;7405672;19;20631;-76
2022/12/08 01:04:09;;;;;;;7.40;4.60;;;5.80;99.90;;;;;;7405240;19;20483;-74
2022/12/08 01:06:35;;;;;;;7.17;4.77;;;5.60;99.90;;;;;;7404446;19;20173;-76
2022/12/08 01:09:02;;;;;;;8.47;4.87;;;5.60;99.90;;;;;;7405397;19;20146;-75
2022/12/08 01:11:28;;;;;;;6.37;4.83;;;5.30;99.90;;;;;;7407095;19;20138;-75
2022/12/08 01:13:54;;;;;;;7.53;4.83;;;5.30;99.90;;;;;;7404360;19;20146;-75
2022/12/08 01:16:25;;;;;;;7.33;4.90;;;5.40;99.90;;;;;;7406878;19;20151;-75
2022/12/08 01:18:52;;;;;;;7.37;4.63;;;5.30;99.90;;;;;;7404546;19;20247;-76
2022/12/08 01:21:19;;;;;;;6.43;4.67;;;5.20;99.90;;;;;;7403001;19;20141;-76
2022/12/08 01:23:45;;;;;;;8.47;5.30;;;5.40;99.90;;;;;;7404747;19;20193;-76
2022/12/08 01:26:14;;;;;;;7.93;4.70;;;5.70;99.90;;;;;;7406668;19;20171;-75
2022/12/08 01:28:41;;;;;;;8.37;4.57;;;5.70;99.90;;;;;;7405245;19;20138;-76
2022/12/08 01:31:17;;;;;;;5.93;4.07;;;5.70;99.90;;;;;;7404872;19;20166;-75
2022/12/08 01:33:43;;;;;;;7.53;4.10;;;5.70;99.90;;;;;;7404171;19;20134;-75
2022/12/08 01:36:21;;;;;;;5.60;4.13;;;5.80;99.90;;;;;;7405013;19;20137;-75
2022/12/08 01:38:47;;;;;;;7.07;4.70;;;5.70;99.90;;;;;;7404383;19;20618;-76
2022/12/08 01:41:15;;;;;;;6.73;4.47;;;5.60;99.90;;;;;;7404501;19;20184;-76
2022/12/08 01:44:09;;;;;;;6.43;4.50;;;5.60;99.90;;;;;;7402822;19;20202;-76
2022/12/08 01:46:40;;;;;;;6.40;4.30;;;5.70;99.90;;;;;;7400227;19;20587;-76
2022/12/08 01:49:21;;;;;;;5.80;4.07;;;5.70;99.90;;;;;;7402648;19;20161;-75
2022/12/08 01:51:58;;;;;;;7.40;4.77;;;5.60;99.90;;;;;;7402951;19;20126;-75
2022/12/08 01:54:30;;;;;;;7.10;3.87;;;5.70;99.90;;;;;;7401265;19;20666;-74
2022/12/08 01:57:10;;;;;;;5.87;3.87;;;5.50;99.90;;;;;;7404408;19;20556;-74
2022/12/08 01:59:43;;;;;;;6.17;4.43;;;5.60;99.90;;;;;;7403095;19;20587;-75
2022/12/08 02:02:10;;;;;;;6.13;4.47;;;5.70;99.90;;;;;;7405419;19;20631;-75
2022/12/08 02:04:36;;;;;;;5.67;4.47;;;5.70;99.90;;;;;;7403725;19;20158;-75
2022/12/08 02:07:02;;;;;;;9.00;4.30;;;5.60;99.90;;;;;;7403368;19;20130;-78
2022/12/08 02:09:28;;;;;;;6.80;4.63;;;5.70;99.90;;;;;;7399145;19;20589;-78
2022/12/08 02:11:56;;;;;;;7.13;4.53;;;5.70;99.90;;;;;;7394704;19;20210;-77
2022/12/08 02:14:23;;;;;;;6.80;4.10;;;5.70;99.90;;;;;;7394291;19;20135;-78
2022/12/08 02:16:59;;;;;;;6.77;4.30;;;5.80;99.90;;;;;;7395598;19;20167;-77
2022/12/08 02:20:02;;;;;;;6.77;4.27;;;5.70;99.90;;;;;;7397007;19;20148;-78
2022/12/08 02:22:50;;;;;;;6.73;4.60;;;5.70;99.90;;;;;;7395668;19;20490;-77
2022/12/08 02:25:28;;;;;;;5.30;3.90;;;5.70;99.90;;;;;;7395170;19;20143;-77
2022/12/08 02:28:00;;;;;;;5.50;4.10;;;5.50;99.90;;;;;;7398162;19;20551;-78
2022/12/08 02:31:04;;;;;;;5.20;3.90;;;5.70;99.90;;;;;;7396598;19;20158;-78
2022/12/08 02:34:05;;;;;;;7.27;4.33;;;5.80;99.90;;;;;;7393585;19;20480;-77
2022/12/08 02:36:50;;;;;;;6.87;4.53;;;5.70;99.90;;;;;;7393390;19;20623;-77
2022/12/08 02:39:24;;;;;;;5.90;4.00;;;5.70;99.90;;;;;;7395925;19;20576;-77
2022/12/08 02:42:18;;;;;;;6.10;4.00;;;5.50;99.90;;;;;;7395294;19;20599;-77
2022/12/08 02:45:17;;;;;;;5.83;4.13;;;5.60;99.90;;;;;;7392665;19;20165;-77
2022/12/08 02:47:43;;;;;;;6.37;4.20;;;5.50;99.90;;;;;;7393045;19;20137;-78
2022/12/08 02:50:09;;;;;;;8.03;4.33;;;5.30;99.90;;;;;;7394620;19;20146;-77
2022/12/08 02:52:42;;;;;;;4.83;3.80;;;5.30;99.90;;;;;;7394626;19;20145;-76
2022/12/08 02:55:30;;;;;;;7.03;4.50;;;5.40;99.90;;;;;;7392939;19;20614;-78
2022/12/08 02:58:05;;;;;;;6.73;4.40;;;5.30;99.90;;;;;;7394228;19;20131;-78
2022/12/08 03:00:44;;;;;;;6.70;4.40;;;5.30;99.90;;;;;;7392679;19;20142;-77
2022/12/08 03:03:27;;;;;;;6.60;4.70;;;5.30;99.90;;;;;;7394692;19;20178;-77
2022/12/08 03:06:16;;;;;;;6.30;4.50;;;5.20;99.90;;;;;;7394857;19;20153;-78
2022/12/08 03:08:57;;;;;;;6.33;4.33;;;5.20;99.90;;;;;;7393380;19;20222;-78
2022/12/08 03:11:44;;;;;;;6.40;4.37;;;5.20;99.90;;;;;;7395843;19;20138;-77
2022/12/08 03:14:13;;;;;;;5.67;3.90;;;4.70;99.90;;;;;;7391379;19;20198;-78
2022/12/08 03:16:43;;;;;;;7.00;4.30;;;5.00;99.90;;;;;;7394384;19;20218;-78
2022/12/08 03:19:21;;;;;;;5.37;3.47;;;4.50;99.90;;;;;;7393541;19;20674;-78
2022/12/08 03:21:51;;;;;;;5.83;4.30;;;4.60;99.90;;;;;;7393910;19;20134;-77
2022/12/08 03:24:20;;;;;;;5.97;4.00;;;4.60;99.90;;;;;;7392927;19;20139;-77
2022/12/08 03:26:53;;;;;;;6.17;4.13;;;4.70;99.90;;;;;;7393245;19;20483;-78
2022/12/08 03:29:19;;;;;;;6.60;3.70;;;4.70;99.90;;;;;;7391655;19;20131;-78
2022/12/08 03:31:52;;;;;;;5.87;4.07;;;4.80;99.90;;;;;;7389232;19;20150;-78
2022/12/08 03:34:20;;;;;;;7.70;4.03;;;4.90;99.90;;;;;;7388649;19;20143;-77
2022/12/08 03:36:45;;;;;;;6.10;4.10;;;4.90;99.90;;;;;;7392850;19;20162;-79
2022/12/08 03:39:11;;;;;;;5.63;4.17;;;5.00;99.90;;;;;;7387546;19;20206;-78
2022/12/08 03:41:37;;;;;;;6.43;4.30;;;5.10;99.90;;;;;;7392919;19;20134;-76
2022/12/08 03:44:03;;;;;;;6.80;4.40;;;5.20;99.90;;;;;;7392535;19;20687;-77
2022/12/08 03:46:30;;;;;;;5.33;3.70;;;5.20;99.90;;;;;;7391670;19;20139;-77
2022/12/08 03:48:56;;;;;;;6.57;4.60;;;5.10;99.90;;;;;;7395353;19;20155;-77
2022/12/08 03:51:22;;;;;;;6.53;4.57;;;5.10;99.90;;;;;;7391349;19;20508;-78
2022/12/08 03:53:48;;;;;;;6.77;4.50;;;5.10;99.90;;;;;;7389199;19;20646;-78
2022/12/08 03:56:29;;;;;;;6.20;4.43;;;5.20;99.90;;;;;;7389868;19;20523;-77
2022/12/08 03:58:56;;;;;;;7.50;4.70;;;5.10;99.90;;;;;;7394546;19;20143;-78
2022/12/08 04:01:22;;;;;;;6.87;3.90;;;5.00;99.90;;;;;;7393378;19;20231;-77
2022/12/08 04:03:49;;;;;;;5.90;4.10;;;4.80;99.90;;;;;;7392072;19;20161;-78
2022/12/08 04:06:15;;;;;;;7.80;4.30;;;4.50;99.90;;;;;;7391708;19;20154;-78
2022/12/08 04:08:41;;;;;;;4.77;4.00;;;4.70;99.90;;;;;;7392465;19;20164;-78
2022/12/08 04:11:07;;;;;;;7.17;4.70;;;4.70;99.90;;;;;;7393450;19;20559;-79
2022/12/08 04:13:37;;;;;;;6.23;4.57;;;4.70;99.90;;;;;;7392132;19;20482;-79
2022/12/08 04:16:04;;;;;;;5.87;4.13;;;4.50;99.90;;;;;;7390643;19;20502;-79
2022/12/08 04:18:30;;;;;;;6.77;4.50;;;4.60;99.90;;;;;;7391760;19;20151;-79
2022/12/08 04:20:56;;;;;;;7.83;5.00;;;4.70;99.90;;;;;;7391374;19;20142;-78
2022/12/08 04:23:22;;;;;;;7.37;4.10;;;4.70;99.90;;;;;;7391517;19;20168;-78
2022/12/08 04:25:50;;;;;;;5.57;4.07;;;4.70;99.90;;;;;;7390407;19;20162;-77
2022/12/08 04:28:16;;;;;;;6.63;4.07;;;4.70;99.90;;;;;;7386455;19;20135;-78
2022/12/08 04:30:42;;;;;;;5.77;4.03;;;4.60;99.90;;;;;;7390833;19;20163;-78
2022/12/08 04:33:07;;;;;;;6.27;4.27;;;4.60;99.90;;;;;;7389543;19;20151;-78
2022/12/08 04:35:33;;;;;;;7.20;4.53;;;4.70;99.90;;;;;;7389850;19;20627;-77
2022/12/08 04:37:59;;;;;;;4.97;3.87;;;4.80;99.90;;;;;;7388652;19;20123;-78
2022/12/08 04:40:24;;;;;;;7.07;4.17;;;4.90;99.90;;;;;;7389998;19;20138;-78
2022/12/08 04:42:50;;;;;;;7.77;4.40;;;4.90;99.90;;;;;;7391284;19;20145;-78
2022/12/08 04:45:16;;;;;;;6.10;4.10;;;4.80;99.90;;;;;;7388203;19;20181;-78
2022/12/08 04:47:42;;;;;;;7.00;4.80;;;4.80;99.90;;;;;;7388699;19;20138;-78
2022/12/08 04:50:08;;;;;;;6.73;4.17;;;4.70;99.90;;;;;;7391984;19;20540;-78
2022/12/08 04:52:34;;;;;;;8.03;4.70;;;4.60;99.90;;;;;;7392262;19;20205;-78
2022/12/08 04:55:00;;;;;;;7.40;4.70;;;4.60;99.90;;;;;;7389302;19;20178;-78
2022/12/08 04:57:25;;;;;;;8.10;4.53;;;4.70;99.90;;;;;;7391383;19;20145;-78
2022/12/08 04:59:51;;;;;;;8.43;4.17;;;4.70;99.90;;;;;;7390562;19;20134;-78
2022/12/08 05:02:17;;;;;;;6.53;5.03;;;4.70;99.90;;;;;;7390942;19;20482;-78
2022/12/08 05:04:42;;;;;;;7.30;4.60;;;4.50;99.90;;;;;;7391634;19;20149;-78
2022/12/08 05:07:08;;;;;;;6.90;4.73;;;4.60;99.90;;;;;;7389215;19;20173;-78
2022/12/08 05:09:34;;;;;;;8.23;4.47;;;4.50;99.90;;;;;;7389149;19;20150;-79
2022/12/08 05:11:59;;;;;;;5.53;4.00;;;4.50;99.90;;;;;;7390214;19;20139;-79
2022/12/08 05:14:27;;;;;;;6.70;4.43;;;4.70;99.90;;;;;;7387007;19;20497;-78
2022/12/08 05:16:52;;;;;;;7.10;4.40;;;4.70;99.90;;;;;;7389327;19;20138;-78
2022/12/08 05:19:18;;;;;;;8.07;4.37;;;4.60;99.90;;;;;;7390569;19;20145;-78
2022/12/08 05:21:44;;;;;;;6.27;4.10;;;4.70;99.90;;;;;;7391200;19;20199;-78
2022/12/08 05:24:10;;;;;;;5.43;4.20;;;4.70;99.90;;;;;;7389340;19;20139;-78
2022/12/08 05:26:36;;;;;;;6.60;4.20;;;4.70;99.90;;;;;;7389963;19;20529;-78
2022/12/08 05:29:02;;;;;;;8.57;4.47;;;4.60;99.90;;;;;;7389575;19;20178;-78
2022/12/08 05:31:27;;;;;;;7.70;4.50;;;4.50;99.90;;;;;;7389574;19;20505;-78
2022/12/08 05:33:53;;;;;;;6.90;4.40;;;4.50;99.90;;;;;;7387778;19;20154;-78
2022/12/08 05:36:19;;;;;;;7.50;4.67;;;4.60;99.90;;;;;;7389859;19;20138;-77
2022/12/08 05:38:45;;;;;;;14.07;7.33;;;4.50;99.90;;;;;;7389302;19;20158;-77
2022/12/08 05:41:18;;;;;;;8.93;5.27;;;4.50;99.90;;;;;;7389910;19;20141;-77
2022/12/08 05:43:45;;;;;;;10.13;4.43;;;4.50;99.90;;;;;;7389750;19;20172;-78
2022/12/08 05:46:11;;;;;;;5.80;3.87;;;4.40;99.90;;;;;;7397179;19;20459;-78
2022/12/08 05:48:40;;;;;;;6.23;4.03;;;4.50;99.90;;;;;;7394100;19;20197;-79
2022/12/08 05:51:13;;;;;;;6.03;4.40;;;4.50;99.90;;;;;;7399238;19;20155;-78
2022/12/08 05:53:39;;;;;;;6.73;4.07;;;4.40;99.90;;;;;;7396593;19;20156;-79
2022/12/08 05:56:05;;;;;;;6.20;4.03;;;4.20;99.90;;;;;;7394398;19;20150;-77
2022/12/08 05:58:30;;;;;;;6.10;4.23;;;4.20;99.90;;;;;;7397052;19;20611;-77
2022/12/08 06:00:56;;;;;;;5.63;4.23;;;4.20;99.90;;;;;;7395312;19;20150;-77
2022/12/08 06:03:22;;;;;;;5.70;4.03;;;4.10;99.90;;;;;;7396848;19;20130;-78
2022/12/08 06:05:47;;;;;;;6.57;3.73;;;4.20;99.90;;;;;;7396632;19;20141;-79
2022/12/08 06:08:13;;;;;;;6.57;4.37;;;4.20;99.90;;;;;;7395932;19;20151;-78
2022/12/08 06:10:41;;;;;;;5.23;3.70;;;4.30;99.90;;;;;;7395377;19;20154;-77
2022/12/08 06:13:07;;;;;;;6.97;4.17;;;4.20;99.90;;;;;;7395396;19;20218;-79
2022/12/08 06:15:34;;;;;;;6.17;3.63;;;4.10;99.90;;;;;;7396411;19;20130;-78
2022/12/08 06:18:00;;;;;;;8.27;4.47;;;4.30;99.90;;;;;;7397501;19;20142;-79
2022/12/08 06:20:26;;;;;;;8.80;4.60;;;4.30;99.90;;;;;;7393997;19;20152;-78
2022/12/08 06:22:53;;;;;;;6.40;4.13;;;4.40;99.90;;;;;;7395605;19;20143;-78
2022/12/08 06:25:19;;;;;;;6.50;4.17;;;4.40;99.90;;;;;;7394550;19;20155;-78
2022/12/08 06:27:45;;;;;;;8.23;4.57;;;4.50;99.90;;;;;;7395084;19;20142;-77
2022/12/08 06:30:11;;;;;;;9.47;5.30;;;4.50;99.90;;;;;;7395134;19;20634;-79
2022/12/08 06:32:36;;;;;;;11.77;6.87;;;4.60;99.90;;;;;;7394199;19;20158;-80
2022/12/08 06:35:02;;;;;;;12.77;7.87;;;4.60;99.90;;;;;;7398309;19;20150;-80
2022/12/08 06:37:29;;;;;;;8.93;5.60;;;4.50;99.90;;;;;;7394993;19;20635;-79
2022/12/08 06:39:56;;;;;;;6.30;4.57;;;4.40;99.90;;;;;;7397521;19;20139;-81
2022/12/08 06:45:07;;;;;;;5.90;4.03;;;4.40;99.90;;;;;;7395709;19;20467;-80
2022/12/08 06:47:33;;;;;;;7.03;4.03;;;4.40;99.90;;;;;;7396748;19;20248;-80
2022/12/08 06:49:58;;;;;;;6.00;4.03;;;4.00;99.90;;;;;;7395922;19;20135;-79
2022/12/08 06:52:24;;;;;;;5.70;4.03;;;4.20;99.90;;;;;;7395873;19;20146;-79
2022/12/08 06:54:50;;;;;;;5.10;3.53;;;4.20;99.90;;;;;;7394080;19;20537;-78
2022/12/08 06:57:17;;;;;;;5.10;3.73;;;3.60;99.90;;;;;;7396209;19;20615;-79
2022/12/08 06:59:43;;;;;;;7.13;3.77;;;3.70;99.90;;;;;;7396732;19;20230;-79
2022/12/08 07:02:10;;;;;;;6.63;3.93;;;4.00;99.90;;;;;;7397266;19;20606;-79
2022/12/08 07:04:36;;;;;;;6.40;3.47;;;3.60;99.90;;;;;;7396071;19;20134;-79
2022/12/08 07:07:02;;;;;;;6.47;3.90;;;3.70;99.90;;;;;;7401331;19;20157;-78
2022/12/08 07:09:28;;;;;;;4.70;3.13;;;4.00;99.90;;;;;;7386396;19;20158;-80
2022/12/08 07:11:53;;;;;;;16.47;9.97;;;4.00;99.90;;;;;;7387173;19;20471;-79
2022/12/08 07:14:23;;;;;;;17.37;9.40;;;4.20;99.90;;;;;;7383988;19;20135;-78
2022/12/08 07:16:50;;;;;;;9.10;6.13;;;4.20;99.90;;;;;;7394595;19;20138;-80
2022/12/08 07:19:18;;;;;;;6.40;4.23;;;3.90;99.90;;;;;;7392716;19;20484;-80
2022/12/08 07:21:43;;;;;;;6.23;4.57;;;4.00;99.90;;;;;;7393752;19;20145;-79
2022/12/08 07:24:11;;;;;;;7.93;4.33;;;3.60;99.90;;;;;;7393788;19;20690;-78
2022/12/08 07:26:37;;;;;;;6.53;4.47;;;3.70;99.90;;;;;;7393079;19;20137;-80
2022/12/08 07:29:03;;;;;;;6.60;4.47;;;3.70;99.90;;;;;;7395700;19;20131;-79
2022/12/08 07:31:30;;;;;;;5.40;3.60;;;4.00;99.90;;;;;;7392676;19;20154;-80
2022/12/08 07:33:56;;;;;;;7.00;4.23;;;4.20;99.90;;;;;;7394621;19;20136;-78
2022/12/08 07:36:23;;;;;;;8.03;4.33;;;4.20;99.90;;;;;;7401909;19;20142;-80
2022/12/08 07:38:52;;;;;;;6.90;4.00;;;4.50;99.90;;;;;;7396523;19;20143;-78
2022/12/08 07:41:19;;;;;;;7.27;4.27;;;4.20;99.90;;;;;;7394206;19;20146;-79
2022/12/08 07:43:46;;;;;;;7.23;4.57;;;4.10;99.90;;;;;;7390521;19;20139;-80
2022/12/08 07:46:13;;;;;;;5.17;3.67;;;4.20;99.90;;;;;;7391390;19;20130;-80
2022/12/08 07:48:39;;;;;;;24.33;12.57;;;4.20;99.90;;;;;;7400828;19;20130;-77
2022/12/08 07:51:05;;;;;;;9.60;4.97;;;4.00;99.90;;;;;;7392493;19;20170;-80
2022/12/08 07:53:31;;;;;;;7.33;4.77;;;3.80;99.90;;;;;;7390083;19;20137;-79
2022/12/08 07:55:57;;;;;;;8.27;4.73;;;3.80;99.90;;;;;;7389354;19;20225;-80
2022/12/08 07:58:24;;;;;;;7.20;4.43;;;4.10;99.90;;;;;;7393663;19;20143;-80
2022/12/08 08:00:50;;;;;;;6.13;3.90;;;4.20;99.90;;;;;;7390504;19;20143;-79
2022/12/08 08:03:16;;;;;;;5.80;3.67;;;4.20;99.90;;;;;;7392286;19;20230;-80
2022/12/08 08:05:43;;;;;;;6.03;3.87;;;4.20;99.90;;;;;;7391517;19;20651;-80
2022/12/08 08:08:10;;;;;;;6.87;3.93;;;4.30;99.90;;;;;;7388869;19;20138;-79
2022/12/08 08:10:35;;;;;;;5.47;3.67;;;4.40;99.90;;;;;;7391271;19;20983;-79
2022/12/08 08:13:01;;;;;;;6.30;4.03;;;4.20;99.90;;;;;;7390962;19;20467;-78
2022/12/08 08:15:28;;;;;;;7.33;4.27;;;4.30;99.90;;;;;;7392869;19;20137;-79
2022/12/08 08:17:53;;;;;;;5.93;4.07;;;4.40;99.90;;;;;;7387256;19;20139;-78
2022/12/08 08:20:21;;;;;;;7.73;4.70;;;4.30;99.90;;;;;;7388520;19;20184;-79
2022/12/08 08:22:49;;;;;;;6.23;4.10;;;4.40;99.90;;;;;;7388650;19;20644;-79
2022/12/08 08:25:17;;;;;;;7.43;4.30;;;4.40;99.90;;;;;;7397182;19;20142;-79
2022/12/08 08:27:45;;;;;;;6.37;4.13;;;4.40;99.90;;;;;;7392886;19;20130;-78
2022/12/08 08:30:12;;;;;;;7.73;4.43;;;4.40;99.90;;;;;;7394253;19;20127;-78
2022/12/08 08:32:37;;;;;;;9.37;6.10;;;4.40;99.90;;;;;;7399216;19;20145;-79
2022/12/08 08:35:04;;;;;;;6.80;4.23;;;4.40;99.90;;;;;;7396575;19;20149;-79
2022/12/08 08:37:30;;;;;;;5.50;3.87;;;4.40;99.90;;;;;;7395867;19;20130;-77
2022/12/08 08:39:56;;;;;;;8.57;4.63;;;4.40;99.90;;;;;;7400380;19;20141;-80
2022/12/08 08:42:22;;;;;;;8.10;4.13;;;4.50;99.90;;;;;;7396090;19;20138;-78
2022/12/08 08:44:49;;;;;;;7.78;4.78;;;4.50;99.90;;;;;;7384321;19;20447;-76
2022/12/08 08:47:15;;;;;;;7.77;4.70;;;4.50;99.90;;;;;;7390865;19;20860;-77
2022/12/08 08:49:41;;;;;;;9.53;4.33;;;4.40;99.90;;;;;;7384844;19;20206;-77
2022/12/08 08:52:06;;;;;;;8.60;4.53;;;4.50;99.90;;;;;;7388464;19;20138;-79
2022/12/08 08:54:33;;;;;;;7.57;5.23;;;4.50;99.90;;;;;;7382460;19;20158;-78
2022/12/08 08:57:00;;;;;;;10.07;5.57;;;4.50;99.90;;;;;;7390687;19;20609;-77
2022/12/08 08:59:26;;;;;;;9.80;4.33;;;4.20;99.90;;;;;;7389099;19;20594;-78
2022/12/08 09:01:54;;;;;;;6.83;3.97;;;3.90;99.90;;;;;;7388005;19;20150;-78
2022/12/08 09:04:21;;;;;;;6.27;3.97;;;3.90;99.90;;;;;;7385960;19;20134;-77
2022/12/08 09:06:47;;;;;;;7.03;4.30;;;4.10;99.90;;;;;;7387314;19;20139;-75
2022/12/08 09:09:13;;;;;;;7.77;4.77;;;4.10;99.90;;;;;;7385901;19;20145;-78
2022/12/08 09:11:39;;;;;;;7.63;4.70;;;4.30;99.90;;;;;;7385329;19;20134;-77
2022/12/08 09:14:05;;;;;;;7.00;4.80;;;4.40;99.90;;;;;;7385285;19;20154;-78
2022/12/08 09:16:31;;;;;;;7.47;4.93;;;4.60;99.90;;;;;;7385191;19;20130;-78
2022/12/08 09:18:57;;;;;;;8.13;4.60;;;4.40;99.90;;;;;;7390780;19;20139;-78
2022/12/08 09:21:25;;;;;;;8.33;5.33;;;4.10;99.90;;;;;;7397598;19;20122;-80
2022/12/08 09:23:56;;;;;;;10.87;5.20;;;4.30;99.90;;;;;;7401931;19;20130;-78
2022/12/08 09:26:23;;;;;;;8.47;5.20;;;4.50;99.90;;;;;;7398672;19;20135;-77
2022/12/08 09:28:52;;;;;;;7.97;5.77;;;4.70;99.90;;;;;;7397315;19;20129;-77
2022/12/08 09:31:20;;;;;;;8.67;5.73;;;4.70;99.90;;;;;;7388621;19;20135;-77
2022/12/08 09:33:46;;;;;;;10.10;6.17;;;4.60;99.90;;;;;;7394202;19;20143;-76
2022/12/08 09:36:12;;;;;;;9.87;5.87;;;4.20;99.90;;;;;;7405931;19;20142;-78
2022/12/08 09:38:39;;;;;;;8.80;5.60;;;4.30;99.90;;;;;;7399192;19;20127;-78
2022/12/08 09:41:26;;;;;;;8.47;5.07;;;4.40;99.90;;;;;;7392611;19;20622;-78
2022/12/08 09:44:11;;;;;;;8.10;5.17;;;4.70;99.90;;;;;;7399946;19;20245;-77
2022/12/08 09:46:38;;;;;;;7.03;5.27;;;4.90;99.90;;;;;;7399051;19;20612;-77
2022/12/08 09:49:12;;;;;;;11.10;6.57;;;4.50;99.90;;;;;;7402720;19;20168;-80
2022/12/08 09:51:40;;;;;;;9.07;5.13;;;4.70;99.90;;;;;;7397350;19;20138;-80
2022/12/08 09:54:12;;;;;;;8.80;5.70;;;4.90;99.90;;;;;;7387733;19;20135;-79
2022/12/08 09:56:38;;;;;;;6.97;4.60;;;4.30;99.90;;;;;;7395996;19;20143;-80
2022/12/08 09:59:30;;;;;;;7.80;5.03;;;4.00;99.90;;;;;;7398014;19;20159;-80
2022/12/08 10:01:58;;;;;;;38.37;19.27;;;4.40;99.90;;;;;;7398638;19;20135;-82
2022/12/08 10:04:37;;;;;;;10.93;6.47;;;4.70;99.90;;;;;;7391755;19;20194;-78
2022/12/08 10:07:16;;;;;;;10.40;5.10;;;4.90;99.90;;;;;;7392359;19;20134;-80
2022/12/08 10:10:03;;;;;;;16.40;9.87;;;5.20;99.90;;;;;;7396282;19;20131;-80
2022/12/08 10:12:44;;;;;;;20.40;12.10;;;5.10;99.90;;;;;;7394404;19;20154;-80
2022/12/08 10:15:38;;;;;;;5.97;3.93;;;5.30;99.90;;;;;;7396332;19;20138;-79
2022/12/08 10:18:18;;;;;;;16.43;9.37;;;5.40;99.90;;;;;;7395692;19;20135;-79
2022/12/08 10:20:47;;;;;;;8.33;4.60;;;5.20;99.90;;;;;;7392055;19;20260;-80
2022/12/08 10:23:31;;;;;;;5.43;3.40;;;5.00;99.90;;;;;;7391323;19;20143;-81
2022/12/08 10:26:00;;;;;;;6.20;4.00;;;4.40;99.90;;;;;;7394637;19;20222;-80
2022/12/08 10:28:26;;;;;;;7.43;3.93;;;4.80;99.90;;;;;;7397359;19;20156;-80
2022/12/08 10:30:51;;;;;;;6.57;4.13;;;5.20;99.90;;;;;;7396363;19;20131;-80
2022/12/08 10:33:20;;;;;;;4.77;3.43;;;5.30;99.90;;;;;;7396018;19;20158;-79
2022/12/08 10:35:55;;;;;;;9.07;4.67;;;5.30;99.90;;;;;;7397145;19;20142;-79
2022/12/08 10:38:32;;;;;;;7.10;4.23;;;5.40;99.90;;;;;;7407640;19;20611;-80
2022/12/08 10:41:10;;;;;;;8.13;4.30;;;5.60;99.90;;;;;;7397492;19;20161;-77
2022/12/08 10:43:48;;;;;;;5.60;3.60;;;5.70;99.90;;;;;;7395593;19;20159;-80
2022/12/08 10:46:21;;;;;;;5.50;3.40;;;5.90;99.90;;;;;;7395409;19;20142;-80
2022/12/08 10:49:10;;;;;;;4.83;3.50;;;6.00;99.90;;;;;;7396978;19;20235;-81
2022/12/08 10:51:41;;;;;;;5.80;4.60;;;6.00;99.90;;;;;;7401410;19;20370;-81
2022/12/08 10:54:32;;;;;;;6.77;4.10;;;6.20;99.90;;;;;;7399796;19;20130;-80
2022/12/08 10:56:58;;;;;;;6.30;3.60;;;6.40;99.90;;;;;;7395333;19;20151;-81
2022/12/08 10:59:24;;;;;;;6.00;3.70;;;6.40;99.90;;;;;;7394856;19;20708;-79
2022/12/08 11:01:53;;;;;;;4.63;3.77;;;6.40;99.90;;;;;;7395421;19;20151;-80
2022/12/08 11:04:20;;;;;;;5.90;3.73;;;6.50;99.90;;;;;;7391124;19;20130;-79
2022/12/08 11:06:48;;;;;;;6.20;3.87;;;6.60;99.90;;;;;;7392056;19;20159;-80
2022/12/08 11:09:17;;;;;;;4.80;3.43;;;6.60;99.90;;;;;;7392697;19;20135;-79
2022/12/08 11:11:44;;;;;;;5.20;3.60;;;6.80;99.90;;;;;;7394250;19;20595;-80
2022/12/08 11:14:21;;;;;;;6.23;3.30;;;7.00;99.90;;;;;;7395606;19;20151;-80
2022/12/08 11:16:50;;;;;;;6.13;3.63;;;7.00;99.90;;;;;;7399878;19;20138;-79
2022/12/08 11:19:18;;;;;;;4.13;3.07;;;7.00;99.90;;;;;;7394828;19;20131;-78
2022/12/08 11:21:44;;;;;;;5.47;3.90;;;7.00;99.90;;;;;;7392155;19;20607;-78
2022/12/08 11:24:26;;;;;;;4.63;3.37;;;6.80;99.90;;;;;;7393048;19;20147;-79
2022/12/08 11:27:01;;;;;;;5.23;3.60;;;6.70;99.90;;;;;;7395450;19;20198;-79
2022/12/08 11:29:31;;;;;;;6.50;3.40;;;6.90;99.90;;;;;;7395177;19;20242;-79
2022/12/08 11:32:13;;;;;;;4.70;3.00;;;7.10;99.90;;;;;;7396521;19;20139;-79
2022/12/08 11:34:51;;;;;;;7.10;4.20;;;7.20;99.90;;;;;;7396281;19;20195;-80
2022/12/08 11:37:24;;;;;;;4.77;3.00;;;7.10;99.90;;;;;;7391738;19;20150;-80
2022/12/08 11:39:53;;;;;;;6.00;4.00;;;7.10;99.90;;;;;;7393380;19;20146;-80
2022/12/08 11:42:23;;;;;;;5.93;3.53;;;7.30;99.90;;;;;;7393973;19;20130;-81
2022/12/08 11:44:57;;;;;;;6.03;3.37;;;7.50;99.90;;;;;;7393176;19;20230;-79
2022/12/08 11:47:48;;;;;;;6.50;4.20;;;7.50;99.90;;;;;;7393209;19;20154;-80
2022/12/08 11:50:25;;;;;;;4.17;3.10;;;7.50;99.90;;;;;;7392140;19;20138;-79
2022/12/08 11:52:51;;;;;;;6.90;3.17;;;7.50;99.90;;;;;;7393358;19;20142;-81
2022/12/08 11:55:39;;;;;;;7.07;3.97;;;7.30;99.90;;;;;;7394196;19;20142;-81
2022/12/08 11:58:28;;;;;;;6.40;3.63;;;7.20;99.90;;;;;;7392938;19;20151;-79
2022/12/08 12:00:53;;;;;;;9.07;4.50;;;7.20;99.90;;;;;;7392890;19;20143;-80
2022/12/08 12:03:40;;;;;;;7.97;4.13;;;7.30;99.90;;;;;;7393362;19;20817;-80
2022/12/08 12:06:59;;;;;;;3.37;2.50;;;7.30;99.90;;;;;;7392282;19;20400;-80
2022/12/08 12:09:32;;;;;;;3.97;2.70;;;7.10;99.90;;;;;;7390200;19;20154;-80
2022/12/08 12:12:13;;;;;;;4.20;2.57;;;6.90;99.90;;;;;;7389690;19;20142;-80
2022/12/08 12:15:10;;;;;;;4.60;3.37;;;7.10;99.90;;;;;;7389640;19;20123;-79
2022/12/08 12:17:39;;;;;;;5.97;3.33;;;7.20;99.90;;;;;;7394970;19;20161;-79
2022/12/08 12:20:24;;;;;;;5.50;3.27;;;7.30;99.90;;;;;;7394556;19;20486;-82
2022/12/08 12:23:00;;;;;;;5.23;3.50;;;7.10;99.90;;;;;;7393758;19;20632;-84
2022/12/08 12:25:27;;;;;;;5.40;3.37;;;7.00;99.90;;;;;;7392152;19;20158;-80
2022/12/08 12:27:59;;;;;;;9.67;4.87;;;7.10;99.90;;;;;;7392369;19;20188;-81
2022/12/08 12:30:29;;;;;;;3.60;2.80;;;7.10;99.90;;;;;;7391956;19;20182;-80
2022/12/08 12:33:00;;;;;;;5.13;2.93;;;7.00;99.90;;;;;;7391612;19;20153;-81
2022/12/08 12:35:37;;;;;;;4.87;3.13;;;7.10;99.90;;;;;;7390285;19;20166;-81
2022/12/08 12:41:06;;;;;;;4.37;3.13;;;6.60;99.90;;;;;;7389613;19;20152;-80
2022/12/08 12:43:37;;;;;;;6.53;4.10;;;6.70;99.90;;;;;;7389820;19;20194;-80
2022/12/08 12:46:22;;;;;;;3.77;2.57;;;6.90;99.90;;;;;;7389454;19;20218;-80
2022/12/08 12:48:48;;;;;;;4.23;3.10;;;7.10;99.90;;;;;;7391860;19;20146;-81
2022/12/08 12:51:39;;;;;;;4.93;3.20;;;7.10;99.90;;;;;;7390659;19;20493;-80
2022/12/08 12:54:25;;;;;;;4.67;3.03;;;7.10;99.90;;;;;;7388834;19;20159;-80
2022/12/08 12:57:15;;;;;;;4.13;2.60;;;7.20;99.90;;;;;;7389956;19;20154;-80
2022/12/08 12:59:49;;;;;;;5.03;2.90;;;7.20;99.90;;;;;;7390729;19;20148;-80
2022/12/08 13:02:19;;;;;;;5.60;2.47;;;7.20;99.90;;;;;;7392597;19;20158;-81
2022/12/08 13:05:06;;;;;;;3.10;2.57;;;7.20;99.90;;;;;;7390207;19;20135;-81
2022/12/08 13:07:40;;;;;;;4.37;2.97;;;7.20;99.90;;;;;;7389962;19;20158;-80
2022/12/08 13:10:15;;;;;;;3.40;2.67;;;7.30;99.90;;;;;;7386216;19;20127;-78
2022/12/08 13:12:43;;;;;;;8.83;5.43;;;7.00;99.90;;;;;;7388512;19;20142;-80
2022/12/08 13:15:18;;;;;;;6.60;3.70;;;7.10;99.90;;;;;;7387626;19;20154;-82
2022/12/08 13:17:47;;;;;;;5.07;2.80;;;7.10;99.90;;;;;;7387322;19;20134;-81
2022/12/08 13:20:25;;;;;;;6.13;2.93;;;7.20;99.90;;;;;;7388936;19;20135;-81
2022/12/08 13:23:24;;;;;;;4.57;2.90;;;7.30;99.90;;;;;;7387746;19;20150;-81
2022/12/08 13:25:50;;;;;;;5.10;2.80;;;7.10;99.90;;;;;;7389821;19;20150;-82